Aérodrome :







RETROUVEZ-NOUS SUR...

 
LOGIN :

S'inscrire | Disclaimer

   EN    FR    IT 

 









Légende :    VFR   VFR Marginal   IFR   IFR Intensif   IFR Très Intensif
Visi : 
Plafond : 
>= 8 km
>= 3000ft
5 à 8 km
1000 à 3000 ft
1500m à 5 km
500 à 1000 ft
800 à 1500m
200 à 500 ft
< 800m
< 200 ft
Symboles :   Orages  Brouillard  Fortes neiges  Fortes précipitations  Vent > 20 kt






- Altitude de l'aérodrome : 28 ft
- Code IATA : MAZ


TJMZ - Eugenio Maria De Hostos

METAR N/A
TAF TJMZ
Valide du 08 à 12h jusqu'au 09 à 12h UTC


081137Z 0812/0912 VRB05KT P6SM FEW030 FEW050
FM081400 12010KT P6SM FEW030 SCT050
FM081700 24014KT P6SM VCSH SCT030 BKN050
FM082200 VRB05KT P6SM FEW030 SCT050 AMD NOT SKED



MET'MAP, la Météo Aéronautique d'un coup d'oeil ! - Copyright ORBIFLY Décembre 2007 - Disclaimer

ORBIFLY MET'MAP TEAM :

Programmation & Développement : Alexandra Zaïnal
Sur une idée originale de : Baudouin d'Aumeries
Assistance à la programmation : Marc-Olivier Méhu
Soutien technique & logistique : Manuel Goepfert

Contact : metmap@orbifly.com




SOURCES & CREDITS :

   NOAA